Terminal Aerodrome Forecast
Issued by NWS Charleston, WV

Current Version | Previous Version | Graphics & Text | Print | Product List | Glossary Off
Versions: 1 2 3 4 5 6 7 8 9 10 11 12 13 14 15 16 17 18 19 20 21

000
FTUS41 KRLX 130900 AAA
TAFPKB
TAF AMD
KPKB 130908Z 1309/1406 20006KT P6SM BKN090
     FM131400 23010G15KT P6SM BKN060
     FM131800 21012G19KT P6SM VCTS BKN040CB
     FM132200 22009G16KT 6SM TSRA BR BKN035CB
     FM140000 22008G15KT 3SM +TSRA BR OVC015CB
     FM140100 21007KT 4SM TSRA BR OVC025CB
     FM140500 20005KT 4SM SHRA BR VCTS OVC025CB=

USA.gov is the U.S. government's official web portal to all federal, state and local government web resources and services.